Time;durP1;ratioP1;P1;durP2;ratioP2;P2;SDS_P1;SDS_P2;PMS_P1;PMS_P2;Temp;Humidity;BMP_temperature;BMP_pressure;BME280_temperature;BME280_humidity;BME280_pressure;Samples;Min_cycle;Max_cycle;Signal;HPM_P1;HPM_P2
2021/10/16 00:05:08;;;;;;;14.48;8.02;;;;;;;;;;6251172;22;20232;-90
2021/10/16 00:08:15;;;;;;;17.35;7.25;;;;;;;;;;6271213;22;20174;-90
2021/10/16 00:11:20;;;;;;;183.60;89.75;;;;;;;;;;6271574;22;20208;-90
2021/10/16 00:14:25;;;;;;;13.27;7.00;;;;;;;;;;6272754;22;20165;-89
2021/10/16 00:17:30;;;;;;;12.80;7.10;;;;;;;;;;6273293;22;20170;-91
2021/10/16 00:20:37;;;;;;;12.27;7.23;;;;;;;;;;6271866;22;20318;-89
2021/10/16 00:23:42;;;;;;;14.60;7.18;;;;;;;;;;6273294;22;20252;-90
2021/10/16 00:26:48;;;;;;;11.87;7.20;;;;;;;;;;6273144;22;20222;-90
2021/10/16 00:29:54;;;;;;;14.17;7.40;;;;;;;;;;6271827;22;20165;-90
2021/10/16 00:32:59;;;;;;;11.17;6.97;;;;;;;;;;6274297;22;20218;-90
2021/10/16 00:36:08;;;;;;;14.77;7.25;;;;;;;;;;6272698;22;20193;-90
2021/10/16 00:39:13;;;;;;;12.70;7.57;;;;;;;;;;6272300;22;20174;-90
2021/10/16 00:42:20;;;;;;;16.33;8.02;;;;;;;;;;6272472;22;20193;-90
2021/10/16 00:45:26;;;;;;;12.73;7.53;;;;;;;;;;6272691;22;20197;-89
2021/10/16 00:48:31;;;;;;;15.15;8.32;;;;;;;;;;6274671;22;20169;-89
2021/10/16 00:51:39;;;;;;;14.40;8.07;;;;;;;;;;6273411;22;20224;-89
2021/10/16 00:54:44;;;;;;;84.65;10.50;;;;;;;;;;6273131;22;20170;-90
2021/10/16 00:57:51;;;;;;;28.38;8.73;;;;;;;;;;6274066;22;20213;-89
2021/10/16 01:00:56;;;;;;;122.68;10.98;;;;;;;;;;6272643;22;20162;-90
2021/10/16 01:04:05;;;;;;;21.98;8.32;;;;;;;;;;6273014;22;20173;-89
2021/10/16 01:07:16;;;;;;;49.80;9.15;;;;;;;;;;6272671;22;20240;-88
2021/10/16 01:10:21;;;;;;;15.70;7.85;;;;;;;;;;6272580;22;20154;-89
2021/10/16 01:13:27;;;;;;;16.15;7.63;;;;;;;;;;6275068;22;20220;-89
2021/10/16 01:16:34;;;;;;;44.15;8.20;;;;;;;;;;6274293;22;20207;-90
2021/10/16 01:19:42;;;;;;;13.18;7.45;;;;;;;;;;6274064;22;20162;-90
2021/10/16 01:22:49;;;;;;;16.83;8.63;;;;;;;;;;6272618;22;20212;-90
2021/10/16 01:25:55;;;;;;;31.52;7.70;;;;;;;;;;6272615;22;20243;-89
2021/10/16 01:29:02;;;;;;;36.83;8.35;;;;;;;;;;6273260;22;20184;-91
2021/10/16 01:32:08;;;;;;;18.25;8.82;;;;;;;;;;6272073;22;20166;-89
2021/10/16 01:35:13;;;;;;;29.80;8.90;;;;;;;;;;6272759;22;20240;-89
2021/10/16 01:38:22;;;;;;;21.20;10.07;;;;;;;;;;6273470;22;20169;-88
2021/10/16 01:41:29;;;;;;;32.30;9.32;;;;;;;;;;6270836;22;20174;-88
2021/10/16 01:44:35;;;;;;;26.45;11.43;;;;;;;;;;6272411;22;20222;-89
2021/10/16 01:47:48;;;;;;;16.60;8.13;;;;;;;;;;6273162;22;20185;-88
2021/10/16 01:50:55;;;;;;;22.33;9.13;;;;;;;;;;6272251;22;20169;-89
2021/10/16 01:54:09;;;;;;;17.85;9.02;;;;;;;;;;6272826;22;20628;-89
2021/10/16 01:57:15;;;;;;;14.95;7.13;;;;;;;;;;6273388;22;20605;-89
2021/10/16 02:03:52;;;;;;;20.08;8.70;;;;;;;;;;6278898;22;20268;-90
2021/10/16 02:07:02;;;;;;;21.42;9.40;;;;;;;;;;6293721;22;20257;-90
2021/10/16 02:10:15;;;;;;;21.00;9.32;;;;;;;;;;6296680;22;20167;-89
2021/10/16 02:13:23;;;;;;;35.53;8.90;;;;;;;;;;6291431;22;20212;-90
2021/10/16 02:16:43;;;;;;;19.73;9.05;;;;;;;;;;6290165;22;20193;-90
2021/10/16 02:20:01;;;;;;;20.40;9.50;;;;;;;;;;6291113;22;20182;-90
2021/10/16 02:23:07;;;;;;;27.38;10.75;;;;;;;;;;6290650;22;20174;-90
2021/10/16 02:26:18;;;;;;;41.67;10.48;;;;;;;;;;6290470;22;20169;-90
2021/10/16 02:29:27;;;;;;;28.05;9.48;;;;;;;;;;6289309;22;20169;-90
2021/10/16 02:32:41;;;;;;;26.58;9.45;;;;;;;;;;6289501;22;20185;-90
2021/10/16 02:35:47;;;;;;;30.48;9.90;;;;;;;;;;6289645;22;20244;-90
2021/10/16 02:38:52;;;;;;;25.73;10.23;;;;;;;;;;6289496;22;20165;-89
2021/10/16 02:41:59;;;;;;;26.88;10.80;;;;;;;;;;6289906;22;20266;-89
2021/10/16 02:45:07;;;;;;;31.27;11.10;;;;;;;;;;6290350;22;20173;-90
2021/10/16 02:48:14;;;;;;;27.80;10.88;;;;;;;;;;6289937;22;20349;-89
2021/10/16 02:51:21;;;;;;;29.80;11.00;;;;;;;;;;6288969;22;20240;-89
2021/10/16 02:54:28;;;;;;;23.93;10.37;;;;;;;;;;6288457;22;20170;-89
2021/10/16 02:57:39;;;;;;;23.93;9.83;;;;;;;;;;6289079;22;20239;-89
2021/10/16 03:00:44;;;;;;;28.33;10.07;;;;;;;;;;6288807;22;20463;-91
2021/10/16 03:03:58;;;;;;;26.97;11.23;;;;;;;;;;6290651;22;20173;-90
2021/10/16 03:07:06;;;;;;;30.10;10.80;;;;;;;;;;6288842;22;20624;-90
2021/10/16 03:10:20;;;;;;;31.17;10.57;;;;;;;;;;6289462;22;20237;-90
2021/10/16 03:13:30;;;;;;;27.15;11.52;;;;;;;;;;6290412;22;20149;-90
2021/10/16 03:16:35;;;;;;;37.53;11.30;;;;;;;;;;6288895;22;20309;-91
2021/10/16 03:19:44;;;;;;;27.42;10.90;;;;;;;;;;6290240;22;20166;-90
2021/10/16 03:22:51;;;;;;;24.80;10.68;;;;;;;;;;6290781;22;20620;-89
2021/10/16 03:25:57;;;;;;;27.13;10.77;;;;;;;;;;6289897;22;20169;-90
2021/10/16 03:29:04;;;;;;;27.90;11.00;;;;;;;;;;6289137;22;20177;-90
2021/10/16 03:32:13;;;;;;;23.87;10.80;;;;;;;;;;6288209;22;20170;-90
2021/10/16 03:35:19;;;;;;;25.27;10.40;;;;;;;;;;6289321;22;20170;-91
2021/10/16 03:38:25;;;;;;;26.70;11.20;;;;;;;;;;6290093;22;20177;-90
2021/10/16 03:41:31;;;;;;;24.48;10.45;;;;;;;;;;6288307;22;20170;-89
2021/10/16 03:44:39;;;;;;;27.35;10.68;;;;;;;;;;6289527;22;20244;-90
2021/10/16 03:47:45;;;;;;;27.03;10.87;;;;;;;;;;6290611;22;20177;-89
2021/10/16 03:50:52;;;;;;;25.47;11.03;;;;;;;;;;6289275;22;20216;-89
2021/10/16 03:53:57;;;;;;;23.13;9.97;;;;;;;;;;6291049;22;20150;-90
2021/10/16 03:57:03;;;;;;;20.10;9.35;;;;;;;;;;6290097;22;20205;-88
2021/10/16 04:00:15;;;;;;;19.52;9.95;;;;;;;;;;6290717;22;20243;-90
2021/10/16 04:03:26;;;;;;;24.07;9.37;;;;;;;;;;6292524;22;20198;-90
2021/10/16 04:06:31;;;;;;;18.47;9.17;;;;;;;;;;6290292;22;20194;-90
2021/10/16 04:09:37;;;;;;;20.53;9.67;;;;;;;;;;6290467;22;20559;-89
2021/10/16 04:12:43;;;;;;;22.10;9.30;;;;;;;;;;6290494;22;20208;-90
2021/10/16 04:15:52;;;;;;;17.10;9.20;;;;;;;;;;6292478;22;20165;-89
2021/10/16 04:18:59;;;;;;;18.73;9.10;;;;;;;;;;6292103;22;20166;-90
2021/10/16 04:22:05;;;;;;;16.53;8.80;;;;;;;;;;6293013;22;20166;-90
2021/10/16 04:25:12;;;;;;;16.57;8.87;;;;;;;;;;6291247;22;20165;-89
2021/10/16 04:28:50;;;;;;;22.70;8.27;;;;;;;;;;6291212;22;20207;-90
2021/10/16 04:32:16;;;;;;;18.83;8.70;;;;;;;;;;6292396;22;20182;-90
2021/10/16 04:35:25;;;;;;;17.07;9.27;;;;;;;;;;6291677;22;20169;-90
2021/10/16 04:38:31;;;;;;;42.97;10.43;;;;;;;;;;6290221;22;20185;-90
2021/10/16 04:41:37;;;;;;;21.93;10.03;;;;;;;;;;6291185;22;20171;-90
2021/10/16 04:44:43;;;;;;;17.05;9.15;;;;;;;;;;6293501;22;20161;-89
2021/10/16 04:47:50;;;;;;;19.30;9.30;;;;;;;;;;6291350;22;20170;-90
2021/10/16 04:50:55;;;;;;;42.13;9.18;;;;;;;;;;6290521;22;20185;-90
2021/10/16 04:54:01;;;;;;;24.90;9.07;;;;;;;;;;6290224;22;20504;-89
2021/10/16 04:57:09;;;;;;;17.67;9.05;;;;;;;;;;6289684;22;20194;-89
2021/10/16 05:00:18;;;;;;;21.40;8.77;;;;;;;;;;6289832;22;20223;-89
2021/10/16 05:03:24;;;;;;;22.50;8.83;;;;;;;;;;6291438;22;20170;-89
2021/10/16 05:06:32;;;;;;;20.40;8.77;;;;;;;;;;6290844;22;20627;-89
2021/10/16 05:09:41;;;;;;;20.13;7.80;;;;;;;;;;6292266;22;20169;-89
2021/10/16 05:12:46;;;;;;;21.87;8.57;;;;;;;;;;6290047;22;20170;-89
2021/10/16 05:15:53;;;;;;;33.87;9.00;;;;;;;;;;6290429;22;20157;-89
2021/10/16 05:19:04;;;;;;;28.87;9.47;;;;;;;;;;6290429;22;20194;-91
2021/10/16 05:22:12;;;;;;;21.27;8.33;;;;;;;;;;6289565;22;20173;-89
2021/10/16 05:25:20;;;;;;;29.07;9.20;;;;;;;;;;6290587;22;20436;-89
2021/10/16 05:28:27;;;;;;;27.67;9.20;;;;;;;;;;6288765;22;20178;-89
2021/10/16 05:31:34;;;;;;;23.27;9.57;;;;;;;;;;6289397;22;20161;-90
2021/10/16 05:34:41;;;;;;;20.53;8.63;;;;;;;;;;6291887;22;20181;-89
2021/10/16 05:37:49;;;;;;;15.93;8.40;;;;;;;;;;6290411;22;20193;-89
2021/10/16 05:40:55;;;;;;;15.90;8.00;;;;;;;;;;6290625;22;20225;-91
2021/10/16 05:44:00;;;;;;;13.43;8.03;;;;;;;;;;6292338;22;20258;-89
2021/10/16 05:47:06;;;;;;;13.77;7.50;;;;;;;;;;6290896;22;20211;-89
2021/10/16 05:50:14;;;;;;;15.30;7.23;;;;;;;;;;6290372;22;20165;-88
2021/10/16 05:53:20;;;;;;;15.13;6.97;;;;;;;;;;6289617;22;20209;-90
2021/10/16 05:56:26;;;;;;;14.77;7.00;;;;;;;;;;6289267;22;20158;-88
2021/10/16 05:59:31;;;;;;;11.93;6.70;;;;;;;;;;6291278;22;20625;-89
2021/10/16 06:02:37;;;;;;;19.42;9.52;;;;;;;;;;6290915;22;20238;-89
2021/10/16 06:05:44;;;;;;;16.80;6.93;;;;;;;;;;6288337;22;20284;-90
2021/10/16 06:08:51;;;;;;;14.77;7.37;;;;;;;;;;6270399;22;20595;-89
2021/10/16 06:11:58;;;;;;;21.87;9.00;;;;;;;;;;6272496;22;20217;-89
2021/10/16 06:15:03;;;;;;;18.33;8.77;;;;;;;;;;6270391;22;20165;-90
2021/10/16 06:18:12;;;;;;;19.43;8.40;;;;;;;;;;6272640;22;20193;-89
2021/10/16 06:21:18;;;;;;;25.83;8.70;;;;;;;;;;6270496;22;20210;-88
2021/10/16 06:24:25;;;;;;;27.80;8.43;;;;;;;;;;6273195;22;20225;-88
2021/10/16 06:27:33;;;;;;;16.20;8.00;;;;;;;;;;6270793;22;20252;-90
2021/10/16 06:30:38;;;;;;;16.37;7.70;;;;;;;;;;6271351;22;20173;-89
2021/10/16 06:33:43;;;;;;;20.67;7.90;;;;;;;;;;6272636;22;20169;-91
2021/10/16 06:36:51;;;;;;;16.27;8.00;;;;;;;;;;6272099;22;20173;-89
2021/10/16 06:39:57;;;;;;;21.87;8.20;;;;;;;;;;6270043;22;20218;-90
2021/10/16 06:43:04;;;;;;;17.07;8.60;;;;;;;;;;6270879;22;20173;-89
2021/10/16 06:46:34;;;;;;;17.08;8.02;;;;;;;;;;6290006;22;20169;-90
2021/10/16 06:49:53;;;;;;;24.93;8.33;;;;;;;;;;6271909;22;20166;-90
2021/10/16 06:53:04;;;;;;;26.47;9.17;;;;;;;;;;6271518;22;20157;-90
2021/10/16 06:56:10;;;;;;;18.43;8.93;;;;;;;;;;6270700;22;20170;-90
2021/10/16 06:59:16;;;;;;;19.50;9.43;;;;;;;;;;6271426;22;20293;-90
2021/10/16 07:02:23;;;;;;;26.63;10.40;;;;;;;;;;6278413;22;20187;-90
2021/10/16 22:07:05;;;;;;;47.67;25.83;;;;;;;;;;6275243;22;20207;-92
2021/10/16 22:10:11;;;;;;;49.83;24.73;;;;;;;;;;6269858;22;20217;-91
2021/10/16 22:13:16;;;;;;;111.70;26.20;;;;;;;;;;6270236;22;20161;-91
2021/10/16 22:16:23;;;;;;;55.40;24.33;;;;;;;;;;6269332;22;20177;-91
2021/10/16 22:19:28;;;;;;;84.20;22.70;;;;;;;;;;6272170;22;20193;-89
2021/10/16 22:22:40;;;;;;;60.63;23.00;;;;;;;;;;6270367;22;20182;-90
2021/10/16 22:25:46;;;;;;;273.40;25.83;;;;;;;;;;6271078;22;20193;-90
2021/10/16 22:28:52;;;;;;;76.33;23.77;;;;;;;;;;6271549;22;20169;-91
2021/10/16 22:32:00;;;;;;;58.73;21.20;;;;;;;;;;6272741;22;20246;-90
2021/10/16 22:35:05;;;;;;;71.87;22.77;;;;;;;;;;6270406;22;20240;-90
2021/10/16 22:38:12;;;;;;;49.33;22.30;;;;;;;;;;6270460;22;20212;-90
2021/10/16 22:41:18;;;;;;;41.13;22.07;;;;;;;;;;6271020;22;20170;-90
2021/10/16 22:44:26;;;;;;;87.77;22.40;;;;;;;;;;6271154;22;20256;-91
2021/10/16 22:47:33;;;;;;;47.03;21.33;;;;;;;;;;6270289;22;20241;-90
2021/10/16 22:50:39;;;;;;;76.53;22.33;;;;;;;;;;6271029;22;20188;-91
2021/10/16 22:53:49;;;;;;;57.43;20.50;;;;;;;;;;6272958;22;20201;-91
2021/10/16 22:56:57;;;;;;;71.47;21.80;;;;;;;;;;6274722;22;20193;-91
2021/10/16 23:00:03;;;;;;;46.70;20.07;;;;;;;;;;6271607;22;20173;-90
2021/10/16 23:03:09;;;;;;;62.57;21.77;;;;;;;;;;6271643;22;20165;-90
2021/10/16 23:06:15;;;;;;;55.60;18.70;;;;;;;;;;6271811;22;20510;-89
2021/10/16 23:09:22;;;;;;;111.73;20.10;;;;;;;;;;6272307;22;20181;-90
2021/10/16 23:12:27;;;;;;;91.13;20.80;;;;;;;;;;6272618;22;20208;-91
2021/10/16 23:15:32;;;;;;;57.30;19.63;;;;;;;;;;6272616;22;20161;-90
2021/10/16 23:18:38;;;;;;;54.93;17.93;;;;;;;;;;6273526;22;20533;-91
2021/10/16 23:21:43;;;;;;;88.67;19.70;;;;;;;;;;6273910;22;20240;-91
2021/10/16 23:24:51;;;;;;;48.03;19.47;;;;;;;;;;6273044;22;20189;-91
2021/10/16 23:27:57;;;;;;;109.80;20.23;;;;;;;;;;6272629;22;20174;-91
2021/10/16 23:31:03;;;;;;;63.27;18.80;;;;;;;;;;6273215;22;20284;-91
2021/10/16 23:34:09;;;;;;;67.30;24.53;;;;;;;;;;6273135;22;20173;-92
2021/10/16 23:37:14;;;;;;;96.33;22.17;;;;;;;;;;6271420;22;20671;-91
2021/10/16 23:40:21;;;;;;;64.50;19.90;;;;;;;;;;6290294;22;20181;-91
2021/10/16 23:43:27;;;;;;;67.20;19.23;;;;;;;;;;6270959;22;20162;-91
2021/10/16 23:46:32;;;;;;;54.40;19.57;;;;;;;;;;6271830;22;20188;-91
2021/10/16 23:49:37;;;;;;;82.07;18.53;;;;;;;;;;6290340;22;20189;-91
2021/10/16 23:52:43;;;;;;;74.13;19.83;;;;;;;;;;6271454;22;20181;-91
2021/10/16 23:55:50;;;;;;;73.33;19.07;;;;;;;;;;6271393;22;20170;-91
2021/10/16 23:58:56;;;;;;;141.43;19.27;;;;;;;;;;6270515;22;20189;-90
